sensor_id;sensor_type;location;lat;lon;timestamp;P1;durP1;ratioP1;P2;durP2;ratioP2
25231;SDS011;13176;51.140;6.290;2022-12-29T00:00:13;53.55;;;50.55;;
25231;SDS011;13176;51.140;6.290;2022-12-29T00:02:40;51.78;;;48.90;;
25231;SDS011;13176;51.140;6.290;2022-12-29T00:05:06;57.78;;;54.42;;
25231;SDS011;13176;51.140;6.290;2022-12-29T00:07:33;50.83;;;48.13;;
25231;SDS011;13176;51.140;6.290;2022-12-29T00:10:00;53.78;;;50.78;;
25231;SDS011;13176;51.140;6.290;2022-12-29T00:12:26;48.33;;;45.78;;
25231;SDS011;13176;51.140;6.290;2022-12-29T00:15:12;51.47;;;48.70;;
25231;SDS011;13176;51.140;6.290;2022-12-29T00:17:58;57.90;;;54.75;;
25231;SDS011;13176;51.140;6.290;2022-12-29T00:20:24;52.70;;;49.83;;
25231;SDS011;13176;51.140;6.290;2022-12-29T00:23:09;48.63;;;46.08;;
25231;SDS011;13176;51.140;6.290;2022-12-29T00:28:38;41.28;;;39.15;;
25231;SDS011;13176;51.140;6.290;2022-12-29T00:31:24;46.28;;;43.88;;
25231;SDS011;13176;51.140;6.290;2022-12-29T00:34:10;49.08;;;46.15;;
25231;SDS011;13176;51.140;6.290;2022-12-29T00:36:55;34.45;;;32.63;;
25231;SDS011;13176;51.140;6.290;2022-12-29T00:39:22;37.58;;;35.67;;
25231;SDS011;13176;51.140;6.290;2022-12-29T00:42:08;41.17;;;39.00;;
25231;SDS011;13176;51.140;6.290;2022-12-29T00:44:53;38.10;;;36.03;;
25231;SDS011;13176;51.140;6.290;2022-12-29T00:47:19;39.95;;;37.75;;
25231;SDS011;13176;51.140;6.290;2022-12-29T00:49:46;34.30;;;32.53;;
25231;SDS011;13176;51.140;6.290;2022-12-29T00:52:12;27.00;;;25.67;;
25231;SDS011;13176;51.140;6.290;2022-12-29T00:54:40;26.95;;;25.60;;
25231;SDS011;13176;51.140;6.290;2022-12-29T00:57:08;25.95;;;24.65;;
25231;SDS011;13176;51.140;6.290;2022-12-29T00:59:35;21.77;;;20.73;;
25231;SDS011;13176;51.140;6.290;2022-12-29T01:02:03;19.63;;;18.63;;
25231;SDS011;13176;51.140;6.290;2022-12-29T01:04:30;19.95;;;19.00;;
25231;SDS011;13176;51.140;6.290;2022-12-29T01:06:58;21.88;;;20.80;;
25231;SDS011;13176;51.140;6.290;2022-12-29T01:09:24;20.35;;;19.38;;
25231;SDS011;13176;51.140;6.290;2022-12-29T01:12:09;18.23;;;17.35;;
25231;SDS011;13176;51.140;6.290;2022-12-29T01:14:36;20.17;;;19.10;;
25231;SDS011;13176;51.140;6.290;2022-12-29T01:17:03;18.52;;;17.48;;
25231;SDS011;13176;51.140;6.290;2022-12-29T01:19:30;19.60;;;18.45;;
25231;SDS011;13176;51.140;6.290;2022-12-29T01:21:57;19.27;;;18.30;;
25231;SDS011;13176;51.140;6.290;2022-12-29T01:24:23;17.85;;;17.00;;
25231;SDS011;13176;51.140;6.290;2022-12-29T01:26:51;18.10;;;17.17;;
25231;SDS011;13176;51.140;6.290;2022-12-29T01:29:18;14.57;;;13.77;;
25231;SDS011;13176;51.140;6.290;2022-12-29T01:31:45;14.77;;;14.10;;
25231;SDS011;13176;51.140;6.290;2022-12-29T01:34:11;17.35;;;16.42;;
25231;SDS011;13176;51.140;6.290;2022-12-29T01:36:39;16.77;;;15.95;;
25231;SDS011;13176;51.140;6.290;2022-12-29T01:39:06;15.82;;;15.02;;
25231;SDS011;13176;51.140;6.290;2022-12-29T01:41:32;16.02;;;15.23;;
25231;SDS011;13176;51.140;6.290;2022-12-29T01:43:59;15.30;;;14.50;;
25231;SDS011;13176;51.140;6.290;2022-12-29T01:46:28;16.67;;;15.85;;
25231;SDS011;13176;51.140;6.290;2022-12-29T01:49:18;17.13;;;16.27;;
25231;SDS011;13176;51.140;6.290;2022-12-29T01:51:47;15.70;;;14.80;;
25231;SDS011;13176;51.140;6.290;2022-12-29T01:54:28;18.00;;;17.10;;
25231;SDS011;13176;51.140;6.290;2022-12-29T01:57:08;17.63;;;16.63;;
25231;SDS011;13176;51.140;6.290;2022-12-29T01:59:40;18.17;;;17.27;;
25231;SDS011;13176;51.140;6.290;2022-12-29T02:02:12;17.05;;;16.15;;
25231;SDS011;13176;51.140;6.290;2022-12-29T02:04:40;17.88;;;16.98;;
25231;SDS011;13176;51.140;6.290;2022-12-29T02:07:14;20.17;;;19.10;;
25231;SDS011;13176;51.140;6.290;2022-12-29T02:09:46;18.88;;;17.88;;
25231;SDS011;13176;51.140;6.290;2022-12-29T02:12:14;21.58;;;20.52;;
25231;SDS011;13176;51.140;6.290;2022-12-29T02:14:43;21.25;;;20.08;;
25231;SDS011;13176;51.140;6.290;2022-12-29T02:17:15;20.35;;;19.27;;
25231;SDS011;13176;51.140;6.290;2022-12-29T02:19:58;19.50;;;18.50;;
25231;SDS011;13176;51.140;6.290;2022-12-29T02:25:15;19.55;;;18.40;;
25231;SDS011;13176;51.140;6.290;2022-12-29T02:27:58;19.67;;;18.63;;
25231;SDS011;13176;51.140;6.290;2022-12-29T02:33:10;19.90;;;18.80;;
25231;SDS011;13176;51.140;6.290;2022-12-29T02:39:02;18.45;;;17.45;;
25231;SDS011;13176;51.140;6.290;2022-12-29T02:50:15;21.67;;;20.58;;
25231;SDS011;13176;51.140;6.290;2022-12-29T02:52:48;22.33;;;21.13;;
25231;SDS011;13176;51.140;6.290;2022-12-29T02:55:18;21.17;;;20.15;;
25231;SDS011;13176;51.140;6.290;2022-12-29T02:57:45;23.92;;;22.63;;
25231;SDS011;13176;51.140;6.290;2022-12-29T03:00:15;22.13;;;21.02;;
25231;SDS011;13176;51.140;6.290;2022-12-29T03:11:08;23.38;;;22.17;;
25231;SDS011;13176;51.140;6.290;2022-12-29T03:14:02;20.20;;;19.10;;
25231;SDS011;13176;51.140;6.290;2022-12-29T03:16:54;22.42;;;21.08;;
25231;SDS011;13176;51.140;6.290;2022-12-29T03:19:35;27.15;;;25.75;;
25231;SDS011;13176;51.140;6.290;2022-12-29T03:22:05;28.05;;;26.58;;
25231;SDS011;13176;51.140;6.290;2022-12-29T03:25:15;28.80;;;27.27;;
25231;SDS011;13176;51.140;6.290;2022-12-29T03:27:46;25.58;;;24.27;;
25231;SDS011;13176;51.140;6.290;2022-12-29T03:30:23;27.88;;;26.38;;
25231;SDS011;13176;51.140;6.290;2022-12-29T03:32:58;28.20;;;26.75;;
25231;SDS011;13176;51.140;6.290;2022-12-29T03:35:29;25.65;;;24.33;;
25231;SDS011;13176;51.140;6.290;2022-12-29T03:38:06;25.85;;;24.48;;
25231;SDS011;13176;51.140;6.290;2022-12-29T03:40:40;22.25;;;21.05;;
25231;SDS011;13176;51.140;6.290;2022-12-29T03:43:10;21.42;;;20.38;;
25231;SDS011;13176;51.140;6.290;2022-12-29T03:45:39;21.30;;;20.00;;
25231;SDS011;13176;51.140;6.290;2022-12-29T03:48:05;18.50;;;17.63;;
25231;SDS011;13176;51.140;6.290;2022-12-29T03:50:32;26.75;;;25.45;;
25231;SDS011;13176;51.140;6.290;2022-12-29T03:52:58;17.50;;;16.60;;
25231;SDS011;13176;51.140;6.290;2022-12-29T03:55:25;16.40;;;15.63;;
25231;SDS011;13176;51.140;6.290;2022-12-29T03:57:51;15.65;;;14.77;;
25231;SDS011;13176;51.140;6.290;2022-12-29T04:00:18;15.32;;;14.60;;
25231;SDS011;13176;51.140;6.290;2022-12-29T04:02:44;16.63;;;15.73;;
25231;SDS011;13176;51.140;6.290;2022-12-29T04:05:11;15.52;;;14.77;;
25231;SDS011;13176;51.140;6.290;2022-12-29T04:07:37;16.27;;;15.48;;
25231;SDS011;13176;51.140;6.290;2022-12-29T04:10:06;16.10;;;15.20;;
25231;SDS011;13176;51.140;6.290;2022-12-29T04:12:32;17.40;;;16.48;;
25231;SDS011;13176;51.140;6.290;2022-12-29T04:14:59;16.70;;;15.90;;
25231;SDS011;13176;51.140;6.290;2022-12-29T04:17:25;18.95;;;17.85;;
25231;SDS011;13176;51.140;6.290;2022-12-29T04:19:52;17.50;;;16.67;;
25231;SDS011;13176;51.140;6.290;2022-12-29T04:22:39;19.83;;;18.83;;
25231;SDS011;13176;51.140;6.290;2022-12-29T04:25:06;22.02;;;20.92;;
25231;SDS011;13176;51.140;6.290;2022-12-29T04:27:32;23.13;;;21.83;;
25231;SDS011;13176;51.140;6.290;2022-12-29T04:29:59;21.38;;;20.30;;
25231;SDS011;13176;51.140;6.290;2022-12-29T04:32:26;21.20;;;20.15;;
25231;SDS011;13176;51.140;6.290;2022-12-29T04:34:52;20.40;;;19.30;;
25231;SDS011;13176;51.140;6.290;2022-12-29T04:37:18;18.00;;;17.15;;
25231;SDS011;13176;51.140;6.290;2022-12-29T04:39:45;15.65;;;14.85;;
25231;SDS011;13176;51.140;6.290;2022-12-29T04:42:11;17.20;;;16.38;;
25231;SDS011;13176;51.140;6.290;2022-12-29T04:44:37;18.00;;;17.05;;
25231;SDS011;13176;51.140;6.290;2022-12-29T04:47:10;16.27;;;15.27;;
25231;SDS011;13176;51.140;6.290;2022-12-29T04:49:36;17.98;;;16.73;;
25231;SDS011;13176;51.140;6.290;2022-12-29T04:52:03;17.42;;;16.52;;
25231;SDS011;13176;51.140;6.290;2022-12-29T04:54:30;16.65;;;15.75;;
25231;SDS011;13176;51.140;6.290;2022-12-29T04:56:56;18.25;;;17.23;;
25231;SDS011;13176;51.140;6.290;2022-12-29T04:59:22;17.17;;;16.20;;
25231;SDS011;13176;51.140;6.290;2022-12-29T05:01:49;17.80;;;16.92;;
25231;SDS011;13176;51.140;6.290;2022-12-29T05:04:15;16.00;;;15.10;;
25231;SDS011;13176;51.140;6.290;2022-12-29T05:06:42;16.25;;;15.40;;
25231;SDS011;13176;51.140;6.290;2022-12-29T05:09:08;15.40;;;14.57;;
25231;SDS011;13176;51.140;6.290;2022-12-29T05:11:35;15.90;;;15.07;;
25231;SDS011;13176;51.140;6.290;2022-12-29T05:14:01;13.90;;;13.10;;
25231;SDS011;13176;51.140;6.290;2022-12-29T05:16:27;14.43;;;13.52;;
25231;SDS011;13176;51.140;6.290;2022-12-29T05:18:54;13.35;;;12.45;;
25231;SDS011;13176;51.140;6.290;2022-12-29T05:21:20;12.85;;;12.05;;
25231;SDS011;13176;51.140;6.290;2022-12-29T05:23:47;13.32;;;12.63;;
25231;SDS011;13176;51.140;6.290;2022-12-29T05:26:13;11.52;;;10.82;;
25231;SDS011;13176;51.140;6.290;2022-12-29T05:28:39;14.77;;;13.82;;
25231;SDS011;13176;51.140;6.290;2022-12-29T05:31:06;13.98;;;13.10;;
25231;SDS011;13176;51.140;6.290;2022-12-29T05:33:32;12.15;;;11.45;;
25231;SDS011;13176;51.140;6.290;2022-12-29T05:36:05;12.20;;;11.57;;
25231;SDS011;13176;51.140;6.290;2022-12-29T05:38:33;11.98;;;11.35;;
25231;SDS011;13176;51.140;6.290;2022-12-29T05:41:00;12.88;;;12.15;;
25231;SDS011;13176;51.140;6.290;2022-12-29T05:43:26;13.55;;;12.88;;
25231;SDS011;13176;51.140;6.290;2022-12-29T05:45:53;12.68;;;12.00;;
25231;SDS011;13176;51.140;6.290;2022-12-29T05:48:20;12.70;;;12.07;;
25231;SDS011;13176;51.140;6.290;2022-12-29T05:50:47;13.05;;;12.25;;
25231;SDS011;13176;51.140;6.290;2022-12-29T05:53:14;12.48;;;11.80;;
25231;SDS011;13176;51.140;6.290;2022-12-29T05:55:42;13.57;;;12.77;;
25231;SDS011;13176;51.140;6.290;2022-12-29T05:58:14;11.68;;;10.98;;
25231;SDS011;13176;51.140;6.290;2022-12-29T06:00:42;13.25;;;12.48;;
25231;SDS011;13176;51.140;6.290;2022-12-29T06:03:09;12.07;;;11.38;;
25231;SDS011;13176;51.140;6.290;2022-12-29T06:05:36;12.68;;;11.90;;
25231;SDS011;13176;51.140;6.290;2022-12-29T06:08:02;12.13;;;11.45;;
25231;SDS011;13176;51.140;6.290;2022-12-29T06:10:29;11.63;;;10.88;;
25231;SDS011;13176;51.140;6.290;2022-12-29T06:12:55;12.82;;;11.93;;
25231;SDS011;13176;51.140;6.290;2022-12-29T06:15:22;13.02;;;12.13;;
25231;SDS011;13176;51.140;6.290;2022-12-29T06:17:48;11.38;;;10.77;;
25231;SDS011;13176;51.140;6.290;2022-12-29T06:20:14;11.55;;;10.82;;
25231;SDS011;13176;51.140;6.290;2022-12-29T06:22:42;12.75;;;11.95;;
25231;SDS011;13176;51.140;6.290;2022-12-29T06:25:09;11.57;;;10.90;;
25231;SDS011;13176;51.140;6.290;2022-12-29T06:27:35;12.63;;;11.90;;
25231;SDS011;13176;51.140;6.290;2022-12-29T06:30:02;12.52;;;11.25;;
25231;SDS011;13176;51.140;6.290;2022-12-29T06:32:28;12.82;;;12.10;;
25231;SDS011;13176;51.140;6.290;2022-12-29T06:34:55;13.23;;;12.43;;
25231;SDS011;13176;51.140;6.290;2022-12-29T06:37:21;12.32;;;11.50;;
25231;SDS011;13176;51.140;6.290;2022-12-29T06:39:47;12.60;;;11.57;;
25231;SDS011;13176;51.140;6.290;2022-12-29T06:42:14;11.55;;;10.68;;
25231;SDS011;13176;51.140;6.290;2022-12-29T06:44:40;12.20;;;11.25;;
25231;SDS011;13176;51.140;6.290;2022-12-29T06:47:07;11.88;;;11.10;;
25231;SDS011;13176;51.140;6.290;2022-12-29T06:49:33;12.30;;;11.50;;
25231;SDS011;13176;51.140;6.290;2022-12-29T06:52:00;11.45;;;10.75;;
25231;SDS011;13176;51.140;6.290;2022-12-29T06:54:37;11.77;;;11.07;;
25231;SDS011;13176;51.140;6.290;2022-12-29T06:57:04;12.43;;;11.65;;
25231;SDS011;13176;51.140;6.290;2022-12-29T06:59:30;11.88;;;10.88;;
25231;SDS011;13176;51.140;6.290;2022-12-29T07:01:56;11.73;;;10.98;;
25231;SDS011;13176;51.140;6.290;2022-12-29T07:04:23;11.32;;;10.73;;
25231;SDS011;13176;51.140;6.290;2022-12-29T07:06:50;10.95;;;10.25;;
25231;SDS011;13176;51.140;6.290;2022-12-29T07:09:16;12.60;;;11.70;;
25231;SDS011;13176;51.140;6.290;2022-12-29T07:11:43;11.02;;;10.23;;
25231;SDS011;13176;51.140;6.290;2022-12-29T07:14:10;11.80;;;11.00;;
25231;SDS011;13176;51.140;6.290;2022-12-29T07:16:37;11.27;;;10.52;;
25231;SDS011;13176;51.140;6.290;2022-12-29T07:19:03;11.55;;;10.65;;
25231;SDS011;13176;51.140;6.290;2022-12-29T07:21:30;10.82;;;10.23;;
25231;SDS011;13176;51.140;6.290;2022-12-29T07:23:57;11.05;;;10.35;;
25231;SDS011;13176;51.140;6.290;2022-12-29T07:26:23;10.85;;;9.95;;
25231;SDS011;13176;51.140;6.290;2022-12-29T07:28:50;11.18;;;10.25;;
25231;SDS011;13176;51.140;6.290;2022-12-29T07:31:18;11.07;;;9.95;;
25231;SDS011;13176;51.140;6.290;2022-12-29T07:33:46;9.63;;;8.77;;
25231;SDS011;13176;51.140;6.290;2022-12-29T07:36:14;10.02;;;9.35;;
25231;SDS011;13176;51.140;6.290;2022-12-29T07:38:42;9.60;;;8.75;;
25231;SDS011;13176;51.140;6.290;2022-12-29T07:41:09;9.38;;;8.68;;
25231;SDS011;13176;51.140;6.290;2022-12-29T07:43:35;9.75;;;8.95;;
25231;SDS011;13176;51.140;6.290;2022-12-29T07:46:02;8.75;;;8.15;;
25231;SDS011;13176;51.140;6.290;2022-12-29T07:48:28;9.35;;;8.75;;
25231;SDS011;13176;51.140;6.290;2022-12-29T07:50:55;10.10;;;9.30;;
25231;SDS011;13176;51.140;6.290;2022-12-29T07:53:21;9.18;;;8.40;;
25231;SDS011;13176;51.140;6.290;2022-12-29T07:55:48;9.63;;;8.73;;
25231;SDS011;13176;51.140;6.290;2022-12-29T07:58:14;9.27;;;8.38;;
25231;SDS011;13176;51.140;6.290;2022-12-29T08:00:41;8.68;;;8.10;;
25231;SDS011;13176;51.140;6.290;2022-12-29T08:03:07;9.20;;;8.43;;
25231;SDS011;13176;51.140;6.290;2022-12-29T08:05:33;9.15;;;8.32;;
25231;SDS011;13176;51.140;6.290;2022-12-29T08:08:00;9.40;;;8.60;;
25231;SDS011;13176;51.140;6.290;2022-12-29T08:10:27;11.93;;;10.80;;
25231;SDS011;13176;51.140;6.290;2022-12-29T08:12:53;11.68;;;10.27;;
25231;SDS011;13176;51.140;6.290;2022-12-29T08:15:20;12.45;;;11.38;;
25231;SDS011;13176;51.140;6.290;2022-12-29T08:17:52;13.10;;;12.07;;
25231;SDS011;13176;51.140;6.290;2022-12-29T08:20:18;12.27;;;11.25;;
25231;SDS011;13176;51.140;6.290;2022-12-29T08:22:45;12.68;;;11.50;;
25231;SDS011;13176;51.140;6.290;2022-12-29T08:25:11;13.02;;;11.98;;
25231;SDS011;13176;51.140;6.290;2022-12-29T08:27:37;12.48;;;11.60;;
25231;SDS011;13176;51.140;6.290;2022-12-29T08:30:04;12.07;;;11.07;;
25231;SDS011;13176;51.140;6.290;2022-12-29T08:32:31;11.80;;;10.90;;
25231;SDS011;13176;51.140;6.290;2022-12-29T08:34:58;12.13;;;11.10;;
25231;SDS011;13176;51.140;6.290;2022-12-29T08:37:24;13.27;;;11.80;;
25231;SDS011;13176;51.140;6.290;2022-12-29T08:39:56;12.32;;;11.55;;
25231;SDS011;13176;51.140;6.290;2022-12-29T08:42:23;11.07;;;10.38;;
25231;SDS011;13176;51.140;6.290;2022-12-29T08:44:51;11.68;;;10.98;;
25231;SDS011;13176;51.140;6.290;2022-12-29T08:47:17;12.63;;;11.48;;
25231;SDS011;13176;51.140;6.290;2022-12-29T08:49:43;12.23;;;11.02;;
25231;SDS011;13176;51.140;6.290;2022-12-29T08:52:10;11.60;;;10.82;;
25231;SDS011;13176;51.140;6.290;2022-12-29T08:54:36;10.95;;;9.95;;
25231;SDS011;13176;51.140;6.290;2022-12-29T08:57:03;11.13;;;10.13;;
25231;SDS011;13176;51.140;6.290;2022-12-29T08:59:29;11.38;;;10.38;;
25231;SDS011;13176;51.140;6.290;2022-12-29T09:01:55;11.23;;;10.10;;
25231;SDS011;13176;51.140;6.290;2022-12-29T09:04:22;9.73;;;9.02;;
25231;SDS011;13176;51.140;6.290;2022-12-29T09:06:50;9.80;;;8.85;;
25231;SDS011;13176;51.140;6.290;2022-12-29T09:09:16;10.10;;;9.25;;
25231;SDS011;13176;51.140;6.290;2022-12-29T09:11:43;8.77;;;8.10;;
25231;SDS011;13176;51.140;6.290;2022-12-29T09:14:10;10.35;;;7.78;;
25231;SDS011;13176;51.140;6.290;2022-12-29T09:16:37;8.50;;;7.75;;
25231;SDS011;13176;51.140;6.290;2022-12-29T09:19:06;8.70;;;7.88;;
25231;SDS011;13176;51.140;6.290;2022-12-29T09:21:32;7.97;;;7.43;;
25231;SDS011;13176;51.140;6.290;2022-12-29T09:23:59;8.75;;;7.30;;
25231;SDS011;13176;51.140;6.290;2022-12-29T09:26:25;8.63;;;7.78;;
25231;SDS011;13176;51.140;6.290;2022-12-29T09:28:52;8.05;;;7.13;;
25231;SDS011;13176;51.140;6.290;2022-12-29T09:31:18;7.43;;;6.57;;
25231;SDS011;13176;51.140;6.290;2022-12-29T09:33:44;7.50;;;6.70;;
25231;SDS011;13176;51.140;6.290;2022-12-29T09:36:17;10.98;;;7.50;;
25231;SDS011;13176;51.140;6.290;2022-12-29T09:38:47;7.20;;;6.13;;
25231;SDS011;13176;51.140;6.290;2022-12-29T09:41:15;6.38;;;5.45;;
25231;SDS011;13176;51.140;6.290;2022-12-29T09:44:03;9.38;;;6.00;;
25231;SDS011;13176;51.140;6.290;2022-12-29T09:46:46;10.35;;;5.80;;
25231;SDS011;13176;51.140;6.290;2022-12-29T09:51:56;8.38;;;5.72;;
25231;SDS011;13176;51.140;6.290;2022-12-29T09:57:34;7.28;;;6.50;;
25231;SDS011;13176;51.140;6.290;2022-12-29T10:00:52;8.43;;;6.43;;
25231;SDS011;13176;51.140;6.290;2022-12-29T10:03:01;8.30;;;5.80;;
25231;SDS011;13176;51.140;6.290;2022-12-29T10:05:39;6.75;;;5.57;;
25231;SDS011;13176;51.140;6.290;2022-12-29T10:08:44;6.85;;;5.70;;
25231;SDS011;13176;51.140;6.290;2022-12-29T10:14:05;7.50;;;4.95;;
25231;SDS011;13176;51.140;6.290;2022-12-29T10:16:48;5.70;;;5.13;;
25231;SDS011;13176;51.140;6.290;2022-12-29T10:19:28;10.45;;;6.05;;
25231;SDS011;13176;51.140;6.290;2022-12-29T10:24:45;5.70;;;5.20;;
25231;SDS011;13176;51.140;6.290;2022-12-29T10:27:15;6.35;;;4.95;;
25231;SDS011;13176;51.140;6.290;2022-12-29T10:29:44;7.05;;;6.32;;
25231;SDS011;13176;51.140;6.290;2022-12-29T10:32:23;8.02;;;5.38;;
25231;SDS011;13176;51.140;6.290;2022-12-29T10:34:59;7.10;;;5.65;;
25231;SDS011;13176;51.140;6.290;2022-12-29T10:37:34;7.13;;;6.35;;
25231;SDS011;13176;51.140;6.290;2022-12-29T10:46:09;8.90;;;6.18;;
25231;SDS011;13176;51.140;6.290;2022-12-29T10:48:39;6.75;;;5.72;;
25231;SDS011;13176;51.140;6.290;2022-12-29T10:51:06;8.50;;;6.00;;
25231;SDS011;13176;51.140;6.290;2022-12-29T10:56:56;10.75;;;6.82;;
25231;SDS011;13176;51.140;6.290;2022-12-29T10:59:05;7.97;;;5.57;;
25231;SDS011;13176;51.140;6.290;2022-12-29T11:01:42;9.98;;;6.82;;
25231;SDS011;13176;51.140;6.290;2022-12-29T11:07:17;9.00;;;6.28;;
25231;SDS011;13176;51.140;6.290;2022-12-29T11:09:52;7.93;;;5.53;;
25231;SDS011;13176;51.140;6.290;2022-12-29T11:12:29;7.72;;;5.30;;
25231;SDS011;13176;51.140;6.290;2022-12-29T11:15:15;7.25;;;5.50;;
25231;SDS011;13176;51.140;6.290;2022-12-29T11:17:46;6.32;;;5.22;;
25231;SDS011;13176;51.140;6.290;2022-12-29T11:23:02;8.30;;;5.20;;
25231;SDS011;13176;51.140;6.290;2022-12-29T11:25:30;6.97;;;4.95;;
25231;SDS011;13176;51.140;6.290;2022-12-29T11:27:58;10.82;;;5.70;;
25231;SDS011;13176;51.140;6.290;2022-12-29T11:30:27;5.85;;;5.18;;
25231;SDS011;13176;51.140;6.290;2022-12-29T11:32:55;6.88;;;5.28;;
25231;SDS011;13176;51.140;6.290;2022-12-29T11:35:36;8.70;;;5.85;;
25231;SDS011;13176;51.140;6.290;2022-12-29T11:38:16;6.95;;;5.38;;
25231;SDS011;13176;51.140;6.290;2022-12-29T11:43:23;5.72;;;4.78;;
25231;SDS011;13176;51.140;6.290;2022-12-29T11:46:06;8.43;;;7.65;;
25231;SDS011;13176;51.140;6.290;2022-12-29T11:48:33;5.88;;;5.30;;
25231;SDS011;13176;51.140;6.290;2022-12-29T11:51:05;9.35;;;6.32;;
25231;SDS011;13176;51.140;6.290;2022-12-29T11:53:41;8.60;;;6.63;;
25231;SDS011;13176;51.140;6.290;2022-12-29T11:56:14;5.68;;;5.05;;
25231;SDS011;13176;51.140;6.290;2022-12-29T11:58:43;5.97;;;5.00;;
25231;SDS011;13176;51.140;6.290;2022-12-29T12:03:46;7.65;;;5.40;;
25231;SDS011;13176;51.140;6.290;2022-12-29T12:06:22;9.98;;;7.85;;
25231;SDS011;13176;51.140;6.290;2022-12-29T12:08:54;6.75;;;6.07;;
25231;SDS011;13176;51.140;6.290;2022-12-29T12:11:25;8.02;;;5.25;;
25231;SDS011;13176;51.140;6.290;2022-12-29T12:14:04;5.40;;;4.90;;
25231;SDS011;13176;51.140;6.290;2022-12-29T12:16:43;9.90;;;5.32;;
25231;SDS011;13176;51.140;6.290;2022-12-29T12:22:08;7.43;;;4.72;;
25231;SDS011;13176;51.140;6.290;2022-12-29T12:24:47;9.35;;;8.55;;
25231;SDS011;13176;51.140;6.290;2022-12-29T12:27:19;5.90;;;5.15;;
25231;SDS011;13176;51.140;6.290;2022-12-29T12:30:09;7.90;;;5.30;;
25231;SDS011;13176;51.140;6.290;2022-12-29T12:32:42;5.63;;;5.05;;
25231;SDS011;13176;51.140;6.290;2022-12-29T12:38:09;8.52;;;5.63;;
25231;SDS011;13176;51.140;6.290;2022-12-29T12:43:52;6.32;;;5.03;;
25231;SDS011;13176;51.140;6.290;2022-12-29T12:46:32;5.32;;;4.78;;
25231;SDS011;13176;51.140;6.290;2022-12-29T13:03:44;6.25;;;5.32;;
25231;SDS011;13176;51.140;6.290;2022-12-29T13:06:32;6.47;;;4.90;;
25231;SDS011;13176;51.140;6.290;2022-12-29T13:12:02;7.18;;;5.20;;
25231;SDS011;13176;51.140;6.290;2022-12-29T13:17:26;27.75;;;11.90;;
25231;SDS011;13176;51.140;6.290;2022-12-29T13:20:11;7.53;;;4.82;;
25231;SDS011;13176;51.140;6.290;2022-12-29T13:22:55;8.25;;;5.00;;
25231;SDS011;13176;51.140;6.290;2022-12-29T13:25:33;5.82;;;4.97;;
25231;SDS011;13176;51.140;6.290;2022-12-29T13:28:26;6.60;;;4.90;;
25231;SDS011;13176;51.140;6.290;2022-12-29T13:31:11;6.97;;;5.00;;
25231;SDS011;13176;51.140;6.290;2022-12-29T13:33:52;6.13;;;5.20;;
25231;SDS011;13176;51.140;6.290;2022-12-29T13:36:39;7.05;;;5.15;;
25231;SDS011;13176;51.140;6.290;2022-12-29T13:39:22;6.28;;;5.03;;
25231;SDS011;13176;51.140;6.290;2022-12-29T13:41:55;8.82;;;5.18;;
25231;SDS011;13176;51.140;6.290;2022-12-29T13:46:49;5.80;;;5.20;;
25231;SDS011;13176;51.140;6.290;2022-12-29T13:49:19;10.50;;;5.15;;
25231;SDS011;13176;51.140;6.290;2022-12-29T13:51:48;8.85;;;5.60;;
25231;SDS011;13176;51.140;6.290;2022-12-29T13:57:30;6.20;;;5.60;;
25231;SDS011;13176;51.140;6.290;2022-12-29T14:00:04;5.85;;;5.35;;
25231;SDS011;13176;51.140;6.290;2022-12-29T14:07:48;11.82;;;5.22;;
25231;SDS011;13176;51.140;6.290;2022-12-29T14:10:26;9.85;;;5.80;;
25231;SDS011;13176;51.140;6.290;2022-12-29T14:15:30;5.97;;;5.47;;
25231;SDS011;13176;51.140;6.290;2022-12-29T14:23:27;6.05;;;5.13;;
25231;SDS011;13176;51.140;6.290;2022-12-29T14:28:32;7.28;;;5.05;;
25231;SDS011;13176;51.140;6.290;2022-12-29T14:31:00;5.47;;;4.95;;
25231;SDS011;13176;51.140;6.290;2022-12-29T14:33:29;6.43;;;5.50;;
25231;SDS011;13176;51.140;6.290;2022-12-29T14:35:57;6.25;;;5.50;;
25231;SDS011;13176;51.140;6.290;2022-12-29T14:38:50;8.15;;;6.05;;
25231;SDS011;13176;51.140;6.290;2022-12-29T14:41:24;8.15;;;5.55;;
25231;SDS011;13176;51.140;6.290;2022-12-29T14:44:19;6.63;;;5.57;;
25231;SDS011;13176;51.140;6.290;2022-12-29T14:49:20;8.27;;;5.53;;
25231;SDS011;13176;51.140;6.290;2022-12-29T14:51:50;8.18;;;5.85;;
25231;SDS011;13176;51.140;6.290;2022-12-29T14:59:32;7.15;;;5.20;;
25231;SDS011;13176;51.140;6.290;2022-12-29T15:02:01;6.10;;;5.10;;
25231;SDS011;13176;51.140;6.290;2022-12-29T15:04:31;6.80;;;5.72;;
25231;SDS011;13176;51.140;6.290;2022-12-29T15:06:59;6.28;;;5.30;;
25231;SDS011;13176;51.140;6.290;2022-12-29T15:09:30;6.82;;;6.20;;
25231;SDS011;13176;51.140;6.290;2022-12-29T15:12:01;7.38;;;6.78;;
25231;SDS011;13176;51.140;6.290;2022-12-29T15:14:52;10.32;;;5.97;;
25231;SDS011;13176;51.140;6.290;2022-12-29T15:17:24;6.75;;;6.20;;
25231;SDS011;13176;51.140;6.290;2022-12-29T15:19:56;7.47;;;6.65;;
25231;SDS011;13176;51.140;6.290;2022-12-29T15:22:24;7.97;;;7.25;;
25231;SDS011;13176;51.140;6.290;2022-12-29T15:25:12;7.78;;;7.00;;
25231;SDS011;13176;51.140;6.290;2022-12-29T15:27:57;13.63;;;8.45;;
25231;SDS011;13176;51.140;6.290;2022-12-29T15:30:29;9.82;;;8.05;;
25231;SDS011;13176;51.140;6.290;2022-12-29T15:32:56;9.23;;;8.15;;
25231;SDS011;13176;51.140;6.290;2022-12-29T15:38:16;8.88;;;8.15;;
25231;SDS011;13176;51.140;6.290;2022-12-29T15:41:34;10.65;;;9.48;;
25231;SDS011;13176;51.140;6.290;2022-12-29T15:44:24;9.70;;;8.65;;
25231;SDS011;13176;51.140;6.290;2022-12-29T15:46:54;9.85;;;8.85;;
25231;SDS011;13176;51.140;6.290;2022-12-29T15:49:21;10.38;;;9.18;;
25231;SDS011;13176;51.140;6.290;2022-12-29T15:51:57;9.05;;;8.25;;
25231;SDS011;13176;51.140;6.290;2022-12-29T15:54:23;9.23;;;8.32;;
25231;SDS011;13176;51.140;6.290;2022-12-29T15:56:52;8.77;;;7.63;;
25231;SDS011;13176;51.140;6.290;2022-12-29T15:59:25;10.05;;;7.07;;
25231;SDS011;13176;51.140;6.290;2022-12-29T16:01:57;7.82;;;6.03;;
25231;SDS011;13176;51.140;6.290;2022-12-29T16:04:25;7.32;;;6.65;;
25231;SDS011;13176;51.140;6.290;2022-12-29T16:13:04;10.88;;;5.93;;
25231;SDS011;13176;51.140;6.290;2022-12-29T16:15:38;6.93;;;5.72;;
25231;SDS011;13176;51.140;6.290;2022-12-29T16:18:05;9.50;;;6.10;;
25231;SDS011;13176;51.140;6.290;2022-12-29T16:20:34;12.35;;;6.97;;
25231;SDS011;13176;51.140;6.290;2022-12-29T16:23:09;9.07;;;6.47;;
25231;SDS011;13176;51.140;6.290;2022-12-29T16:25:48;8.85;;;6.05;;
25231;SDS011;13176;51.140;6.290;2022-12-29T16:28:16;7.10;;;5.43;;
25231;SDS011;13176;51.140;6.290;2022-12-29T16:30:46;11.02;;;6.10;;
25231;SDS011;13176;51.140;6.290;2022-12-29T16:33:29;9.73;;;5.95;;
25231;SDS011;13176;51.140;6.290;2022-12-29T16:36:02;8.57;;;5.30;;
25231;SDS011;13176;51.140;6.290;2022-12-29T16:38:48;6.75;;;6.05;;
25231;SDS011;13176;51.140;6.290;2022-12-29T16:41:28;6.88;;;5.50;;
25231;SDS011;13176;51.140;6.290;2022-12-29T16:44:12;6.80;;;6.00;;
25231;SDS011;13176;51.140;6.290;2022-12-29T16:46:58;12.63;;;6.93;;
25231;SDS011;13176;51.140;6.290;2022-12-29T16:49:29;9.15;;;6.53;;
25231;SDS011;13176;51.140;6.290;2022-12-29T16:51:58;10.52;;;6.70;;
25231;SDS011;13176;51.140;6.290;2022-12-29T16:54:27;12.63;;;7.25;;
25231;SDS011;13176;51.140;6.290;2022-12-29T16:57:01;8.18;;;7.38;;
25231;SDS011;13176;51.140;6.290;2022-12-29T16:59:35;9.13;;;7.00;;
25231;SDS011;13176;51.140;6.290;2022-12-29T17:02:23;9.95;;;7.53;;
25231;SDS011;13176;51.140;6.290;2022-12-29T17:04:52;14.85;;;8.25;;